createdAt,value
2022-08-18T00:01:14.773Z,100563.34
2022-08-18T00:03:56.860Z,100564.22
2022-08-18T00:06:32.389Z,100568.94
2022-08-18T00:09:01.917Z,100569.16
2022-08-18T00:11:41.588Z,100572.59
2022-08-18T00:14:21.235Z,100576.06
2022-08-18T00:16:52.175Z,100577.81
2022-08-18T00:19:20.087Z,100575.28
2022-08-18T00:22:14.547Z,100579.06
2022-08-18T00:24:48.521Z,100576.34
2022-08-18T00:27:21.663Z,100577.81
2022-08-18T00:29:51.620Z,100577.81
2022-08-18T00:32:23.260Z,100576.56
2022-08-18T00:34:51.871Z,100580.16
2022-08-18T00:37:21.349Z,100575.84
2022-08-18T00:39:51.829Z,100569.56
2022-08-18T00:42:27.628Z,100565.91
2022-08-18T00:44:59.734Z,100560.75
2022-08-18T00:47:41.091Z,100560.75
2022-08-18T00:50:15.956Z,100567.09
2022-08-18T00:52:50.964Z,100568.50
2022-08-18T00:55:20.357Z,100574.31
2022-08-18T00:57:51.603Z,100567.19
2022-08-18T01:00:19.636Z,100571.72
2022-08-18T01:02:52.582Z,100574.94
2022-08-18T01:05:25.659Z,100582.50
2022-08-18T01:07:55.038Z,100570.84
2022-08-18T01:10:25.135Z,100582.69
2022-08-18T01:12:55.550Z,100585.50
2022-08-18T01:15:28.391Z,100584.63
2022-08-18T01:18:18.028Z,100587.59
2022-08-18T01:21:11.378Z,100580.03
2022-08-18T01:23:41.367Z,100582.38
2022-08-18T01:26:09.348Z,100575.72
2022-08-18T01:28:41.312Z,100576.22
2022-08-18T01:31:11.201Z,100566.84
2022-08-18T01:33:42.272Z,100575.69
2022-08-18T01:36:14.421Z,100571.03
2022-08-18T01:38:44.386Z,100580.00
2022-08-18T01:41:28.893Z,100575.25
2022-08-18T01:43:59.263Z,100567.41
2022-08-18T01:46:27.898Z,100568.47
2022-08-18T01:49:01.401Z,100570.09
2022-08-18T01:51:40.084Z,100568.13
2022-08-18T01:54:12.965Z,100559.53
2022-08-18T01:56:42.207Z,100567.59
2022-08-18T01:59:14.389Z,100579.53
2022-08-18T02:01:50.404Z,100572.53
2022-08-18T02:04:40.583Z,100574.25
2022-08-18T02:07:12.667Z,100568.09
2022-08-18T02:09:43.920Z,100571.56
2022-08-18T02:12:12.120Z,100574.16
2022-08-18T02:14:40.155Z,100567.44
2022-08-18T02:17:11.088Z,100571.47
2022-08-18T02:19:41.147Z,100578.75
2022-08-18T02:22:11.143Z,100584.03
2022-08-18T02:24:40.977Z,100588.38
2022-08-18T02:27:10.969Z,100592.22
2022-08-18T02:29:39.379Z,100592.91
2022-08-18T02:32:08.715Z,100593.53
2022-08-18T02:34:36.777Z,100592.78
2022-08-18T02:37:05.027Z,100602.03
2022-08-18T02:39:35.212Z,100608.00
2022-08-18T02:42:05.282Z,100598.50
2022-08-18T02:44:33.543Z,100603.19
2022-08-18T02:47:01.712Z,100604.06
2022-08-18T02:49:29.589Z,100602.44
2022-08-18T02:51:57.569Z,100602.53
2022-08-18T02:54:27.136Z,100603.41
2022-08-18T02:56:57.084Z,100599.47
2022-08-18T02:59:28.485Z,100599.78
2022-08-18T03:01:59.941Z,100601.91
2022-08-18T03:04:32.567Z,100600.09
2022-08-18T03:07:06.748Z,100597.28
2022-08-18T03:09:36.067Z,100593.81
2022-08-18T03:12:07.149Z,100592.09
2022-08-18T03:14:37.211Z,100590.75
2022-08-18T03:17:06.306Z,100584.06
2022-08-18T03:19:34.494Z,100588.97
2022-08-18T03:22:03.710Z,100589.06
2022-08-18T03:24:33.094Z,100587.91
2022-08-18T03:27:04.401Z,100596.56
2022-08-18T03:29:33.086Z,100594.53
2022-08-18T03:32:03.434Z,100600.25
2022-08-18T03:34:32.247Z,100593.50
2022-08-18T03:37:00.984Z,100606.34
2022-08-18T03:39:29.740Z,100602.72
2022-08-18T03:42:01.718Z,100610.00
2022-08-18T03:44:32.309Z,100610.00
2022-08-18T03:47:02.742Z,100603.84
2022-08-18T03:49:33.646Z,100603.06
2022-08-18T03:52:02.523Z,100600.75
2022-08-18T03:54:32.046Z,100599.03
2022-08-18T03:57:00.553Z,100601.91
2022-08-18T03:59:31.776Z,100591.16
2022-08-18T04:02:00.379Z,100600.19
2022-08-18T04:04:29.892Z,100600.88
2022-08-18T04:07:04.550Z,100605.56
2022-08-18T04:09:33.976Z,100603.72
2022-08-18T04:12:15.286Z,100604.72
2022-08-18T04:14:47.905Z,100606.03
2022-08-18T04:17:16.235Z,100611.50
2022-08-18T04:19:44.229Z,100611.34
2022-08-18T04:22:18.181Z,100612.38
2022-08-18T04:24:47.176Z,100621.88
2022-08-18T04:27:17.892Z,100621.22
2022-08-18T04:29:48.044Z,100625.34
2022-08-18T04:32:16.073Z,100638.88
2022-08-18T04:34:44.418Z,100634.38
2022-08-18T04:37:17.225Z,100644.75
2022-08-18T04:39:46.011Z,100641.09
2022-08-18T04:42:14.102Z,100645.88
2022-08-18T04:44:42.567Z,100649.41
2022-08-18T04:47:11.138Z,100653.19
2022-08-18T04:49:39.066Z,100653.19
2022-08-18T04:52:40.141Z,100651.88
2022-08-18T04:55:11.523Z,100659.94
2022-08-18T04:57:40.222Z,100661.66
2022-08-18T05:00:11.897Z,100659.00
2022-08-18T05:02:39.800Z,100661.88
2022-08-18T05:05:11.078Z,100653.16
2022-08-18T05:07:45.729Z,100653.59
2022-08-18T05:10:17.469Z,100656.88
2022-08-18T05:12:48.344Z,100663.41
2022-08-18T05:15:17.656Z,100658.03
2022-08-18T05:17:47.650Z,100668.59
2022-08-18T05:20:18.750Z,100660.22
2022-08-18T05:22:47.807Z,100673.56
2022-08-18T05:25:17.406Z,100667.66
2022-08-18T05:27:45.475Z,100671.38
2022-08-18T05:30:14.494Z,100677.16
2022-08-18T05:32:48.671Z,100672.44
2022-08-18T05:35:24.388Z,100670.50
2022-08-18T05:38:16.069Z,100678.41
2022-08-18T05:40:47.656Z,100674.25
2022-08-18T05:43:17.507Z,100685.69
2022-08-18T05:45:45.429Z,100682.38
2022-08-18T05:48:14.932Z,100687.88
2022-08-18T05:50:43.337Z,100668.59
2022-08-18T05:53:15.171Z,100671.97
2022-08-18T05:56:12.197Z,100666.97
2022-08-18T05:58:44.095Z,100678.09
2022-08-18T06:01:17.046Z,100675.66
2022-08-18T06:03:50.893Z,100673.31
2022-08-18T06:06:21.404Z,100671.63
2022-08-18T06:08:55.058Z,100670.97
2022-08-18T06:11:25.742Z,100677.63
2022-08-18T06:13:59.122Z,100681.75
2022-08-18T06:16:40.153Z,100682.72
2022-08-18T06:19:23.857Z,100679.50
2022-08-18T06:22:01.572Z,100681.75
2022-08-18T06:24:37.101Z,100687.03
2022-08-18T06:27:15.141Z,100689.72
2022-08-18T06:29:58.814Z,100695.91
2022-08-18T06:32:41.644Z,100698.66
2022-08-18T06:35:19.060Z,100701.81
2022-08-18T06:38:15.661Z,100705.28
2022-08-18T06:40:43.521Z,100709.25
2022-08-18T06:43:17.081Z,100705.41
2022-08-18T06:45:51.922Z,100713.56
2022-08-18T06:48:27.099Z,100707.63
2022-08-18T06:51:00.358Z,100709.63
2022-08-18T06:53:53.534Z,100711.16
2022-08-18T06:56:26.213Z,100707.50
2022-08-18T06:59:14.437Z,100706.56
2022-08-18T07:01:43.077Z,100714.78
2022-08-18T07:04:14.070Z,100715.75
2022-08-18T07:06:41.945Z,100721.47
2022-08-18T07:09:23.090Z,100722.28
2022-08-18T07:12:04.120Z,100729.13
2022-08-18T07:14:42.918Z,100731.25
2022-08-18T07:17:13.307Z,100733.72
2022-08-18T07:19:41.727Z,100733.00
2022-08-18T07:22:18.015Z,100734.97
2022-08-18T07:24:48.526Z,100744.19
2022-08-18T07:27:18.951Z,100744.34
2022-08-18T07:30:03.304Z,100748.34
2022-08-18T07:32:36.242Z,100747.28
2022-08-18T07:35:08.429Z,100749.03
2022-08-18T07:37:44.231Z,100752.53
2022-08-18T07:40:23.332Z,100747.19
2022-08-18T07:43:01.428Z,100754.44
2022-08-18T07:45:37.065Z,100745.63
2022-08-18T07:48:34.667Z,100756.19
2022-08-18T07:51:08.763Z,100753.16
2022-08-18T07:53:54.812Z,100754.16
2022-08-18T07:56:37.001Z,100756.69
2022-08-18T07:59:13.458Z,100764.94
2022-08-18T08:01:50.034Z,100749.28
2022-08-18T08:04:33.462Z,100758.22
2022-08-18T08:07:25.808Z,100757.00
2022-08-18T08:10:02.791Z,100752.28
2022-08-18T08:12:38.017Z,100760.09
2022-08-18T08:15:18.328Z,100754.69
2022-08-18T08:18:06.047Z,100764.53
2022-08-18T08:20:40.981Z,100760.25
2022-08-18T08:23:19.492Z,100756.47
2022-08-18T08:26:01.628Z,100762.66
2022-08-18T08:28:42.265Z,100767.97
2022-08-18T08:34:11.973Z,100756.53
2022-08-18T08:36:41.996Z,100764.00
2022-08-18T08:39:15.362Z,100768.63
2022-08-18T08:41:49.927Z,100764.56
2022-08-18T08:44:24.830Z,100760.28
2022-08-18T08:47:00.506Z,100762.75
2022-08-18T08:49:38.983Z,100765.75
2022-08-18T08:52:18.744Z,100766.13
2022-08-18T08:54:53.560Z,100764.25
2022-08-18T08:57:24.279Z,100769.44
2022-08-18T08:59:53.451Z,100753.28
2022-08-18T09:02:49.000Z,100760.25
2022-08-18T09:05:23.132Z,100762.66
2022-08-18T09:08:27.946Z,100752.66
2022-08-18T09:11:18.938Z,100747.56
2022-08-18T09:14:17.641Z,100746.88
2022-08-18T09:16:56.891Z,100743.72
2022-08-18T09:19:41.380Z,100746.28
2022-08-18T09:22:19.620Z,100742.31
2022-08-18T09:24:51.226Z,100737.84
2022-08-18T09:27:48.498Z,100736.16
2022-08-18T09:30:42.232Z,100731.50
2022-08-18T09:33:24.800Z,100737.66
2022-08-18T09:36:20.347Z,100729.13
2022-08-18T09:39:11.656Z,100728.25
2022-08-18T09:41:50.189Z,100747.50
2022-08-18T09:44:51.225Z,100744.69
2022-08-18T09:47:51.672Z,100759.31
2022-08-18T09:50:55.642Z,100758.34
2022-08-18T09:53:49.128Z,100759.84
2022-08-18T09:56:57.422Z,100757.97
2022-08-18T10:00:19.763Z,100760.34
2022-08-18T10:03:33.770Z,100757.91
2022-08-18T10:06:20.590Z,100757.91
2022-08-18T10:09:14.719Z,100761.69
2022-08-18T10:12:15.831Z,100751.78
2022-08-18T10:18:34.021Z,100755.22
2022-08-18T10:21:09.966Z,100757.47
2022-08-18T10:24:02.843Z,100751.56
2022-08-18T10:27:13.381Z,100754.00
2022-08-18T10:30:05.012Z,100753.03
2022-08-18T10:32:54.512Z,100756.38
2022-08-18T10:35:59.141Z,100749.81
2022-08-18T10:38:45.870Z,100753.50
2022-08-18T10:41:25.164Z,100753.03
2022-08-18T10:43:57.459Z,100747.13
2022-08-18T10:46:32.887Z,100747.00
2022-08-18T10:49:18.283Z,100743.19
2022-08-18T10:52:10.647Z,100745.41
2022-08-18T10:54:57.336Z,100735.81
2022-08-18T10:57:33.928Z,100739.25
2022-08-18T11:00:07.010Z,100740.59
2022-08-18T11:03:42.514Z,100739.22
2022-08-18T11:06:04.358Z,100733.81
2022-08-18T11:08:45.115Z,100736.22
2022-08-18T11:11:33.639Z,100734.97
2022-08-18T11:14:16.937Z,100740.00
2022-08-18T11:16:55.815Z,100740.00
2022-08-18T11:19:25.917Z,100744.38
2022-08-18T11:21:54.599Z,100739.84
2022-08-18T11:24:25.562Z,100740.56
2022-08-18T11:26:56.140Z,100733.72
2022-08-18T11:29:28.682Z,100727.53
2022-08-18T11:32:03.828Z,100718.72
2022-08-18T11:34:41.339Z,100725.34
2022-08-18T11:37:51.250Z,100715.03
2022-08-18T11:43:29.847Z,100722.22
2022-08-18T11:46:16.585Z,100719.72
2022-08-18T11:48:53.113Z,100724.00
2022-08-18T11:51:27.083Z,100714.75
2022-08-18T11:53:59.755Z,100717.88
2022-08-18T11:56:31.173Z,100712.72
2022-08-18T11:59:01.734Z,100709.97
2022-08-18T12:01:36.156Z,100702.72
2022-08-18T12:04:21.918Z,100701.59
2022-08-18T12:07:01.099Z,100699.31
2022-08-18T12:12:33.289Z,100696.97
2022-08-18T12:15:25.286Z,100693.19
2022-08-18T12:17:58.007Z,100688.91
2022-08-18T12:20:26.005Z,100687.56
2022-08-18T12:22:58.166Z,100701.88
2022-08-18T12:25:26.086Z,100685.63
2022-08-18T12:27:54.389Z,100678.88
2022-08-18T12:30:22.344Z,100675.63
2022-08-18T12:35:41.871Z,100685.06
2022-08-18T12:38:13.905Z,100687.09
2022-08-18T12:40:42.908Z,100679.69
2022-08-18T12:43:10.835Z,100675.22
2022-08-18T12:45:39.249Z,100679.47
2022-08-18T12:48:08.045Z,100675.78
2022-08-18T12:50:50.277Z,100678.00
2022-08-18T12:53:30.206Z,100672.56
2022-08-18T12:56:08.559Z,100665.91
2022-08-18T12:58:40.561Z,100667.88
2022-08-18T13:01:08.667Z,100662.63
2022-08-18T13:03:38.605Z,100661.50
2022-08-18T13:06:11.492Z,100663.66
2022-08-18T13:08:48.080Z,100655.38
2022-08-18T13:11:21.687Z,100650.97
2022-08-18T13:13:56.181Z,100643.00
2022-08-18T13:16:30.546Z,100650.31
2022-08-18T13:19:08.054Z,100653.59
2022-08-18T13:21:41.074Z,100656.03
2022-08-18T13:24:12.663Z,100658.91
2022-08-18T13:26:45.861Z,100668.03
2022-08-18T13:29:15.481Z,100668.03
2022-08-18T13:31:55.378Z,100660.03
2022-08-18T13:34:24.401Z,100658.00
2022-08-18T13:36:52.400Z,100652.94
2022-08-18T13:39:24.151Z,100648.44
2022-08-18T13:41:54.831Z,100651.69
2022-08-18T13:44:27.270Z,100643.09
2022-08-18T13:46:56.105Z,100645.84
2022-08-18T13:49:30.504Z,100644.78
2022-08-18T13:52:00.345Z,100656.50
2022-08-18T13:54:33.871Z,100664.53
2022-08-18T13:57:03.695Z,100658.47
2022-08-18T13:59:35.744Z,100667.09
2022-08-18T14:02:08.617Z,100659.66
2022-08-18T14:04:38.353Z,100654.94
2022-08-18T14:07:10.516Z,100653.19
2022-08-18T14:09:40.992Z,100661.28
2022-08-18T14:12:22.404Z,100658.53
2022-08-18T14:14:53.026Z,100668.59
2022-08-18T14:17:22.522Z,100662.75
2022-08-18T14:20:10.674Z,100662.88
2022-08-18T14:23:08.187Z,100657.44
2022-08-18T14:25:55.130Z,100654.03
2022-08-18T14:28:24.956Z,100647.97
2022-08-18T14:30:54.505Z,100642.88
2022-08-18T14:33:34.345Z,100639.53
2022-08-18T14:36:13.050Z,100632.97
2022-08-18T14:38:41.523Z,100640.13
2022-08-18T14:41:13.319Z,100641.34
2022-08-18T14:43:51.616Z,100648.53
2022-08-18T14:46:33.695Z,100650.31
2022-08-18T14:49:03.977Z,100648.72
2022-08-18T14:51:33.645Z,100642.41
2022-08-18T14:54:02.127Z,100643.00
2022-08-18T14:56:33.345Z,100631.97
2022-08-18T14:59:07.755Z,100626.53
2022-08-18T15:01:36.760Z,100626.41
2022-08-18T15:04:19.307Z,100630.22
2022-08-18T15:06:56.552Z,100626.78
2022-08-18T15:09:27.285Z,100630.28
2022-08-18T15:11:58.394Z,100625.38
2022-08-18T15:14:32.936Z,100623.31
2022-08-18T15:17:02.938Z,100613.00
2022-08-18T15:19:59.254Z,100619.72
2022-08-18T15:22:36.695Z,100608.50
2022-08-18T15:25:24.084Z,100606.06
2022-08-18T15:27:53.858Z,100605.34
2022-08-18T15:30:22.966Z,100600.59
2022-08-18T15:32:51.690Z,100599.88
2022-08-18T15:35:20.425Z,100598.91
2022-08-18T15:37:51.478Z,100595.97
2022-08-18T15:40:35.489Z,100597.19
2022-08-18T15:43:09.587Z,100605.34
2022-08-18T15:45:43.415Z,100598.66
2022-08-18T15:48:26.284Z,100596.78
2022-08-18T15:50:54.424Z,100606.53
2022-08-18T15:53:29.769Z,100605.53
2022-08-18T15:55:58.461Z,100600.50
2022-08-18T15:58:33.740Z,100604.09
2022-08-18T16:01:02.770Z,100597.41
2022-08-18T16:03:50.000Z,100590.25
2022-08-18T16:06:27.746Z,100590.88
2022-08-18T16:09:01.725Z,100588.84
2022-08-18T16:11:30.026Z,100581.44
2022-08-18T16:13:59.990Z,100569.75
2022-08-18T16:16:35.511Z,100578.94
2022-08-18T16:19:05.242Z,100575.59
2022-08-18T16:21:33.358Z,100567.78
2022-08-18T16:24:01.688Z,100582.66
2022-08-18T16:26:30.192Z,100580.09
2022-08-18T16:29:01.717Z,100582.94
2022-08-18T16:31:30.528Z,100576.38
2022-08-18T16:33:59.015Z,100569.63
2022-08-18T16:36:27.386Z,100571.94
2022-08-18T16:38:58.332Z,100570.66
2022-08-18T16:41:27.623Z,100572.94
2022-08-18T16:43:56.387Z,100570.06
2022-08-18T16:46:28.306Z,100570.66
2022-08-18T16:48:57.853Z,100582.06
2022-08-18T16:51:28.547Z,100581.50
2022-08-18T16:53:56.647Z,100590.28
2022-08-18T16:56:27.167Z,100580.91
2022-08-18T16:59:13.139Z,100589.66
2022-08-18T17:02:00.822Z,100591.50
2022-08-18T17:04:33.582Z,100591.72
2022-08-18T17:07:02.623Z,100592.22
2022-08-18T17:09:30.838Z,100587.81
2022-08-18T17:11:58.713Z,100587.34
2022-08-18T17:14:29.269Z,100592.50
2022-08-18T17:17:00.273Z,100589.06
2022-08-18T17:19:31.186Z,100590.19
2022-08-18T17:21:59.081Z,100587.84
2022-08-18T17:24:31.930Z,100584.28
2022-08-18T17:27:26.016Z,100584.72
2022-08-18T17:30:03.817Z,100590.47
2022-08-18T17:32:41.499Z,100591.31
2022-08-18T17:35:16.788Z,100584.44
2022-08-18T17:37:54.557Z,100591.59
2022-08-18T17:40:28.619Z,100588.44
2022-08-18T17:42:58.547Z,100588.94
2022-08-18T17:45:29.501Z,100589.78
2022-08-18T17:48:05.464Z,100589.31
2022-08-18T17:50:54.726Z,100597.94
2022-08-18T17:53:23.312Z,100609.34
2022-08-18T17:55:59.993Z,100603.59
2022-08-18T17:58:37.986Z,100606.72
2022-08-18T18:01:06.177Z,100603.53
2022-08-18T18:03:35.353Z,100611.19
2022-08-18T18:06:10.746Z,100610.13
2022-08-18T18:08:57.896Z,100606.81
2022-08-18T18:11:32.299Z,100605.34
2022-08-18T18:14:01.591Z,100612.78
2022-08-18T18:16:35.079Z,100607.63
2022-08-18T18:19:07.689Z,100601.59
2022-08-18T18:21:53.605Z,100602.69
2022-08-18T18:24:31.621Z,100608.38
2022-08-18T18:26:59.471Z,100613.19
2022-08-18T18:29:34.485Z,100609.91
2022-08-18T18:32:07.469Z,100612.09
2022-08-18T18:34:39.744Z,100605.84
2022-08-18T18:37:27.319Z,100607.75
2022-08-18T18:39:58.060Z,100606.41
2022-08-18T18:42:28.360Z,100613.91
2022-08-18T18:44:58.153Z,100616.75
2022-08-18T18:47:42.440Z,100622.91
2022-08-18T18:50:18.453Z,100626.50
2022-08-18T18:52:56.764Z,100631.53
2022-08-18T18:55:26.896Z,100630.44
2022-08-18T18:58:09.902Z,100631.16
2022-08-18T19:00:53.642Z,100633.34
2022-08-18T19:03:29.373Z,100635.91
2022-08-18T19:06:13.328Z,100638.97
2022-08-18T19:08:51.908Z,100647.69
2022-08-18T19:11:29.030Z,100650.03
2022-08-18T19:14:03.024Z,100650.25
2022-08-18T19:16:40.957Z,100654.44
2022-08-18T19:19:38.394Z,100652.94
2022-08-18T19:22:11.443Z,100656.44
2022-08-18T19:24:48.571Z,100651.13
2022-08-18T19:27:25.223Z,100640.31
2022-08-18T19:29:57.972Z,100640.03
2022-08-18T19:32:33.650Z,100634.34
2022-08-18T19:35:04.436Z,100637.97
2022-08-18T19:37:53.859Z,100629.84
2022-08-18T19:40:27.510Z,100625.94
2022-08-18T19:43:01.820Z,100635.00
2022-08-18T19:45:34.710Z,100640.75
2022-08-18T19:48:08.409Z,100646.63
2022-08-18T19:50:43.100Z,100651.47
2022-08-18T19:53:44.292Z,100651.91
2022-08-18T19:56:26.088Z,100656.31
2022-08-18T19:59:18.042Z,100656.97
2022-08-18T20:01:58.725Z,100655.16
2022-08-18T20:04:39.186Z,100654.19
2022-08-18T20:07:52.065Z,100656.78
2022-08-18T20:10:45.045Z,100657.22
2022-08-18T20:13:28.174Z,100658.94
2022-08-18T20:16:13.322Z,100670.41
2022-08-18T20:18:43.852Z,100673.19
2022-08-18T20:21:47.486Z,100675.78
2022-08-18T20:24:40.362Z,100680.25
2022-08-18T20:27:32.874Z,100682.47
2022-08-18T20:30:40.627Z,100693.97
2022-08-18T20:33:19.497Z,100685.94
2022-08-18T20:35:53.082Z,100691.69
2022-08-18T20:38:33.897Z,100684.88
2022-08-18T20:45:01.319Z,100689.22
2022-08-18T20:47:55.949Z,100687.13
2022-08-18T20:51:10.679Z,100685.31
2022-08-18T20:54:01.510Z,100685.75
2022-08-18T20:56:43.948Z,100692.31
2022-08-18T20:59:20.736Z,100695.47
2022-08-18T21:01:58.989Z,100699.59
2022-08-18T21:04:42.918Z,100703.78
2022-08-18T21:07:36.808Z,100706.50
2022-08-18T21:10:18.533Z,100709.19
2022-08-18T21:13:03.963Z,100705.81
2022-08-18T21:15:38.084Z,100711.22
2022-08-18T21:18:19.053Z,100717.50
2022-08-18T21:20:51.371Z,100715.34
2022-08-18T21:23:26.906Z,100713.59
2022-08-18T21:26:02.956Z,100716.41
2022-08-18T21:28:37.797Z,100710.16
2022-08-18T21:31:42.574Z,100715.56
2022-08-18T21:34:10.175Z,100706.50
2022-08-18T21:36:49.157Z,100710.38
2022-08-18T21:39:19.741Z,100717.38
2022-08-18T21:42:01.534Z,100715.13
2022-08-18T21:44:42.490Z,100712.94
2022-08-18T21:47:20.119Z,100716.63
2022-08-18T21:58:48.225Z,100721.56
2022-08-18T22:01:32.024Z,100718.56
2022-08-18T22:04:10.418Z,100723.09
2022-08-18T22:06:45.448Z,100714.44
2022-08-18T22:12:51.923Z,100708.31
2022-08-18T22:15:36.900Z,100711.06
2022-08-18T22:18:07.643Z,100721.31
2022-08-18T22:20:47.845Z,100713.84
2022-08-18T22:23:54.039Z,100713.97
2022-08-18T22:26:30.146Z,100720.63
2022-08-18T22:29:01.971Z,100718.69
2022-08-18T22:31:35.265Z,100713.72
2022-08-18T22:34:07.297Z,100711.31
2022-08-18T22:36:43.382Z,100706.34
2022-08-18T22:39:23.754Z,100699.91
2022-08-18T22:41:53.047Z,100701.81
2022-08-18T22:44:23.988Z,100703.06
2022-08-18T22:47:09.165Z,100709.75
2022-08-18T22:49:38.996Z,100708.34
2022-08-18T22:52:29.905Z,100708.25
2022-08-18T22:54:59.143Z,100698.97
2022-08-18T22:57:28.979Z,100711.25
2022-08-18T22:59:58.223Z,100716.19
2022-08-18T23:02:29.733Z,100727.69
2022-08-18T23:05:04.434Z,100730.50
2022-08-18T23:07:34.304Z,100737.63
2022-08-18T23:10:13.971Z,100739.66
2022-08-18T23:12:42.948Z,100735.44
2022-08-18T23:15:15.341Z,100732.56
2022-08-18T23:17:45.292Z,100743.50
2022-08-18T23:20:17.433Z,100737.38
2022-08-18T23:22:47.551Z,100729.69
2022-08-18T23:25:15.938Z,100717.00
2022-08-18T23:27:44.015Z,100722.59
2022-08-18T23:30:12.567Z,100725.72
2022-08-18T23:32:40.598Z,100723.88
2022-08-18T23:35:10.533Z,100736.06
2022-08-18T23:37:39.668Z,100736.72
2022-08-18T23:40:11.312Z,100743.63
2022-08-18T23:42:40.054Z,100735.81
2022-08-18T23:45:08.859Z,100732.38
2022-08-18T23:47:37.057Z,100731.91
2022-08-18T23:50:06.344Z,100737.03
2022-08-18T23:52:35.601Z,100747.38
2022-08-18T23:55:05.741Z,100742.00
2022-08-18T23:57:33.655Z,100747.22
